Time;durP1;ratioP1;P1;durP2;ratioP2;P2;SDS_P1;SDS_P2;PMS_P1;PMS_P2;Temp;Humidity;BMP_temperature;BMP_pressure;BME280_temperature;BME280_humidity;BME280_pressure;Samples;Min_cycle;Max_cycle;Signal;HPM_P1;HPM_P2
2022/03/25 00:00:50;;;;;;;35.13;16.07;;;;;;;5.07;54.81;101054.19;4209699;28;20231;-67
2022/03/25 00:03:17;;;;;;;36.90;15.77;;;;;;;5.09;54.64;101054.94;4194465;28;20299;-69
2022/03/25 00:05:44;;;;;;;37.30;15.77;;;;;;;5.10;55.01;101056.63;4210033;28;20278;-70
2022/03/25 00:08:11;;;;;;;34.93;15.40;;;;;;;5.05;54.75;101056.91;4213152;28;23735;-69
2022/03/25 00:10:38;;;;;;;38.57;15.90;;;;;;;4.93;55.23;101052.38;4219257;28;22603;-67
2022/03/25 00:13:05;;;;;;;36.10;15.53;;;;;;;4.83;55.56;101053.91;4219946;28;20241;-68
2022/03/25 00:15:32;;;;;;;29.80;14.90;;;;;;;4.80;54.86;101054.06;4220802;28;20239;-69
2022/03/25 00:17:58;;;;;;;37.53;15.97;;;;;;;4.79;55.12;101060.28;4218291;28;20659;-68
2022/03/25 00:20:25;;;;;;;35.00;15.27;;;;;;;4.83;55.20;101052.09;4196425;28;22714;-69
2022/03/25 00:22:52;;;;;;;41.33;17.57;;;;;;;4.72;55.54;101053.69;4196271;28;20274;-68
2022/03/25 00:25:18;;;;;;;41.57;19.33;;;;;;;4.75;56.28;101053.50;4207892;28;25379;-69
2022/03/25 00:27:46;;;;;;;43.83;19.33;;;;;;;4.64;56.34;101052.38;4208097;28;20231;-67
2022/03/25 00:30:12;;;;;;;43.47;19.40;;;;;;;4.61;56.82;101042.00;4188858;28;20244;-69
2022/03/25 00:32:40;;;;;;;44.83;19.23;;;;;;;4.60;57.70;101042.94;4224644;28;25235;-67
2022/03/25 00:35:06;;;;;;;43.77;18.90;;;;;;;4.41;58.40;101044.97;4212117;28;20277;-69
2022/03/25 00:37:33;;;;;;;44.73;18.13;;;;;;;4.39;57.95;101041.56;4203340;28;22440;-68
2022/03/25 00:40:00;;;;;;;53.57;19.93;;;;;;;4.44;58.02;101037.72;4213184;28;20220;-70
2022/03/25 00:42:28;;;;;;;44.80;19.07;;;;;;;4.40;57.65;101038.88;4206708;28;20232;-67
2022/03/25 00:44:55;;;;;;;45.53;18.17;;;;;;;4.19;58.96;101037.44;4206516;28;20520;-69
2022/03/25 00:47:23;;;;;;;39.37;17.73;;;;;;;4.18;58.49;101033.13;4199453;28;20312;-69
2022/03/25 00:49:50;;;;;;;43.27;17.67;;;;;;;4.19;58.54;101032.19;4207235;28;20236;-69
2022/03/25 00:52:17;;;;;;;40.03;16.97;;;;;;;4.22;58.81;101032.03;4207426;28;20224;-70
2022/03/25 00:54:44;;;;;;;46.23;18.73;;;;;;;4.03;58.94;101032.25;4203695;28;21631;-71
2022/03/25 00:57:10;;;;;;;40.93;18.00;;;;;;;4.04;58.92;101031.31;4193933;28;20241;-70
2022/03/25 00:59:37;;;;;;;41.87;17.17;;;;;;;4.00;59.53;101035.91;4208087;28;22163;-69
2022/03/25 01:02:03;;;;;;;47.13;17.93;;;;;;;3.94;60.05;101027.50;4204915;28;20224;-71
2022/03/25 01:04:30;;;;;;;36.40;17.83;;;;;;;3.89;59.85;101032.19;4208849;28;20240;-69
2022/03/25 01:06:56;;;;;;;46.93;18.03;;;;;;;3.98;59.71;101026.38;4196593;28;20243;-70
2022/03/25 01:09:23;;;;;;;37.60;17.20;;;;;;;4.03;59.44;101024.34;4207260;28;20608;-69
2022/03/25 01:11:49;;;;;;;43.50;17.70;;;;;;;3.93;59.71;101033.69;4209415;28;20232;-71
2022/03/25 01:14:16;;;;;;;46.33;19.33;;;;;;;3.83;60.13;101028.09;4218237;28;22045;-69
2022/03/25 01:16:43;;;;;;;43.70;17.57;;;;;;;3.83;59.94;101030.75;4208278;28;20244;-68
2022/03/25 01:19:10;;;;;;;44.03;18.27;;;;;;;3.75;60.31;101033.81;4201108;28;20286;-70
2022/03/25 01:21:37;;;;;;;46.93;18.77;;;;;;;3.78;60.51;101028.38;4207283;28;20228;-71
2022/03/25 01:24:04;;;;;;;43.77;18.27;;;;;;;3.72;60.44;101031.38;4203681;28;20712;-68
2022/03/25 01:26:31;;;;;;;41.77;17.77;;;;;;;3.66;60.59;101033.50;4204851;28;20232;-70
2022/03/25 01:28:58;;;;;;;45.43;19.60;;;;;;;3.50;61.68;101025.59;4204488;28;20235;-69
2022/03/25 01:31:25;;;;;;;44.27;19.40;;;;;;;3.45;61.75;101030.25;4206995;28;20232;-68
2022/03/25 01:33:51;;;;;;;49.00;19.27;;;;;;;3.41;62.14;101034.84;4208723;28;20371;-69
2022/03/25 01:36:19;;;;;;;50.13;20.43;;;;;;;3.34;62.50;101036.94;4206174;28;22631;-70
2022/03/25 01:38:45;;;;;;;55.33;22.13;;;;;;;3.32;62.39;101037.97;4220527;28;21446;-69
2022/03/25 01:41:15;;;;;;;60.03;23.27;;;;;;;3.26;62.36;101041.78;4203586;28;20262;-68
2022/03/25 01:43:44;;;;;;;55.47;23.70;;;;;;;3.20;62.91;101039.47;4218401;28;20224;-69
2022/03/25 01:46:10;;;;;;;51.10;21.60;;;;;;;3.14;63.45;101037.19;4203115;28;20287;-69
2022/03/25 01:48:37;;;;;;;51.37;21.97;;;;;;;3.21;63.69;101046.47;4192698;28;20294;-69
2022/03/25 01:51:03;;;;;;;51.43;20.10;;;;;;;3.25;63.23;101042.69;4196963;28;20235;-70
2022/03/25 01:53:30;;;;;;;50.30;20.10;;;;;;;3.17;63.18;101040.50;4207594;28;21737;-69
2022/03/25 01:55:58;;;;;;;42.90;19.23;;;;;;;3.11;63.41;101034.72;4210156;28;20306;-69
2022/03/25 01:58:26;;;;;;;52.67;19.40;;;;;;;2.94;64.21;101035.63;4207891;28;20259;-68
2022/03/25 02:00:57;;;;;;;46.47;18.60;;;;;;;2.90;64.98;101040.19;4211959;28;20238;-68
2022/03/25 02:03:24;;;;;;;47.93;19.13;;;;;;;2.97;64.11;101040.69;4194464;28;20224;-69
2022/03/25 02:05:51;;;;;;;44.50;19.17;;;;;;;2.91;64.26;101041.03;4205236;28;21056;-68
2022/03/25 02:08:18;;;;;;;45.70;18.27;;;;;;;2.94;63.77;101040.88;4200767;28;20251;-68
2022/03/25 02:10:45;;;;;;;46.13;19.37;;;;;;;2.86;64.16;101040.44;4221783;28;20227;-68
2022/03/25 02:13:12;;;;;;;47.57;19.70;;;;;;;2.84;64.51;101037.88;4208791;28;21225;-70
2022/03/25 02:15:41;;;;;;;47.97;20.17;;;;;;;2.89;64.10;101041.13;4213405;28;20236;-73
2022/03/25 02:18:10;;;;;;;44.40;20.70;;;;;;;2.81;64.89;101037.19;4203100;28;20495;-68
2022/03/25 02:20:37;;;;;;;50.90;20.90;;;;;;;2.93;65.05;101042.66;4201144;28;21832;-69
2022/03/25 02:23:05;;;;;;;42.70;18.93;;;;;;;2.91;65.06;101044.53;4180400;28;21019;-68
2022/03/25 02:25:31;;;;;;;47.37;20.30;;;;;;;2.85;65.06;101039.56;4205891;28;21590;-71
2022/03/25 02:27:59;;;;;;;51.53;20.80;;;;;;;2.72;65.57;101036.75;4202331;28;25190;-69
2022/03/25 02:30:27;;;;;;;49.80;20.73;;;;;;;2.70;65.84;101041.22;4201492;28;21248;-70
2022/03/25 02:32:57;;;;;;;53.13;19.77;;;;;;;2.64;66.41;101048.56;4182185;28;23853;-71
2022/03/25 02:35:39;;;;;;;54.03;22.03;;;;;;;2.65;66.04;101042.41;4196461;28;22973;-69
2022/03/25 02:38:07;;;;;;;49.53;20.47;;;;;;;2.53;66.34;101044.72;4205178;28;20326;-72
2022/03/25 02:40:35;;;;;;;48.30;21.23;;;;;;;2.47;65.91;101050.28;4191864;28;20339;-70
2022/03/25 02:43:02;;;;;;;52.47;21.43;;;;;;;2.31;66.54;101054.63;4204771;28;20240;-71
2022/03/25 02:45:29;;;;;;;62.87;22.97;;;;;;;2.18;67.40;101049.13;4205043;28;20231;-68
2022/03/25 02:47:55;;;;;;;51.00;22.17;;;;;;;1.99;68.79;101051.81;4208594;28;20248;-69
2022/03/25 02:50:22;;;;;;;67.73;23.57;;;;;;;1.86;69.68;101050.72;4201389;28;20239;-70
2022/03/25 02:52:49;;;;;;;63.83;23.90;;;;;;;1.50;71.84;101054.16;4202875;28;20579;-70
2022/03/25 02:55:15;;;;;;;60.37;24.53;;;;;;;1.26;73.27;101059.63;4192166;28;20295;-68
2022/03/25 02:57:42;;;;;;;65.93;25.27;;;;;;;1.28;73.48;101051.66;4206358;28;20248;-69
2022/03/25 03:00:09;;;;;;;57.90;24.23;;;;;;;1.39;73.63;101059.91;4201629;28;21021;-69
2022/03/25 03:02:36;;;;;;;54.40;21.90;;;;;;;1.50;72.19;101059.41;4205382;28;22400;-69
2022/03/25 03:05:06;;;;;;;64.43;24.17;;;;;;;1.42;72.60;101064.16;4188110;28;20234;-68
2022/03/25 03:07:35;;;;;;;58.03;23.40;;;;;;;1.41;72.40;101067.69;4200403;28;20308;-70
2022/03/25 03:10:06;;;;;;;55.53;23.70;;;;;;;1.36;72.68;101065.28;4203385;28;21199;-69
2022/03/25 03:12:33;;;;;;;61.37;24.37;;;;;;;1.30;72.89;101075.19;4185529;28;20232;-70
2022/03/25 03:15:00;;;;;;;60.30;23.67;;;;;;;1.25;73.39;101063.16;4201099;28;21586;-71
2022/03/25 03:17:27;;;;;;;51.20;23.00;;;;;;;1.21;73.24;101069.44;4206074;28;21450;-68
2022/03/25 03:19:54;;;;;;;50.73;21.33;;;;;;;1.21;73.73;101069.44;4208007;28;20231;-68
2022/03/25 03:22:21;;;;;;;50.37;21.03;;;;;;;1.38;73.24;101073.94;4202275;28;22097;-69
2022/03/25 03:24:48;;;;;;;56.03;22.00;;;;;;;1.49;72.04;101070.81;4192249;28;21103;-69
2022/03/25 03:27:15;;;;;;;54.70;19.93;;;;;;;1.41;71.87;101067.69;4207288;28;20237;-69
2022/03/25 03:29:42;;;;;;;51.37;20.27;;;;;;;1.48;71.74;101075.22;4202630;28;22666;-69
2022/03/25 03:32:09;;;;;;;56.10;21.33;;;;;;;1.63;71.45;101072.78;4204116;28;25735;-69
2022/03/25 03:34:36;;;;;;;51.73;20.00;;;;;;;1.71;71.04;101078.53;4209065;28;20247;-72
2022/03/25 03:37:03;;;;;;;51.07;23.47;;;;;;;1.79;70.25;101078.16;4194860;28;21806;-69
2022/03/25 03:39:30;;;;;;;56.17;23.90;;;;;;;1.84;69.70;101070.91;4220898;28;21816;-68
2022/03/25 03:41:56;;;;;;;62.07;23.53;;;;;;;1.85;69.90;101077.84;4194196;28;20244;-68
2022/03/25 03:44:23;;;;;;;55.90;22.90;;;;;;;1.87;69.44;101073.38;4207862;28;20246;-69
2022/03/25 03:46:49;;;;;;;52.67;23.17;;;;;;;1.93;68.93;101080.97;4191209;28;20236;-68
2022/03/25 03:49:16;;;;;;;46.07;20.90;;;;;;;1.83;69.25;101082.34;4201593;28;22990;-67
2022/03/25 03:51:42;;;;;;;48.97;20.40;;;;;;;1.89;68.66;101071.53;4202878;28;20653;-68
2022/03/25 03:54:09;;;;;;;51.07;20.53;;;;;;;1.97;68.62;101076.44;4215154;28;22413;-68
2022/03/25 03:56:35;;;;;;;50.10;19.90;;;;;;;1.97;68.69;101076.44;4208536;28;21986;-67
2022/03/25 03:59:02;;;;;;;44.50;19.20;;;;;;;1.98;68.74;101073.72;4200307;28;23666;-69
2022/03/25 04:01:29;;;;;;;50.67;18.93;;;;;;;1.94;68.50;101077.41;4209653;28;20229;-67
2022/03/25 04:03:55;;;;;;;52.27;19.37;;;;;;;1.88;68.72;101083.81;4199280;28;20573;-67
2022/03/25 04:06:22;;;;;;;46.17;19.20;;;;;;;1.92;68.83;101079.28;4202336;28;23075;-67
2022/03/25 04:08:49;;;;;;;48.00;19.47;;;;;;;1.92;68.88;101081.91;4209692;28;20264;-69
2022/03/25 04:11:15;;;;;;;50.87;20.77;;;;;;;1.86;68.77;101079.56;4205963;28;20418;-69
2022/03/25 04:13:44;;;;;;;49.60;19.27;;;;;;;1.72;69.38;101087.25;4205215;28;20274;-67
2022/03/25 04:16:11;;;;;;;51.13;20.60;;;;;;;1.73;69.28;101086.31;4201105;28;22142;-71
2022/03/25 04:18:38;;;;;;;55.67;20.80;;;;;;;1.62;69.92;101092.94;4190459;28;22596;-68
2022/03/25 04:21:05;;;;;;;56.07;20.97;;;;;;;1.50;70.28;101090.88;4195189;28;21170;-68
2022/03/25 04:23:31;;;;;;;46.63;19.50;;;;;;;1.61;69.65;101093.84;4200855;28;20228;-67
2022/03/25 04:25:58;;;;;;;44.67;18.77;;;;;;;1.51;70.40;101087.31;4197351;28;20238;-68
2022/03/25 04:28:24;;;;;;;53.50;19.87;;;;;;;1.56;69.48;101089.72;4212731;28;21212;-68
2022/03/25 04:30:51;;;;;;;47.57;19.47;;;;;;;1.55;70.22;101083.66;4208250;28;24057;-67
2022/03/25 04:33:18;;;;;;;50.60;20.80;;;;;;;1.55;70.25;101096.75;4214956;28;20357;-66
2022/03/25 04:35:44;;;;;;;47.10;19.77;;;;;;;1.50;70.21;101092.63;4218326;28;20269;-70
2022/03/25 04:38:11;;;;;;;47.63;19.47;;;;;;;1.41;70.42;101083.44;4209256;28;20232;-68
2022/03/25 04:40:38;;;;;;;50.67;19.53;;;;;;;1.37;70.87;101087.94;4222631;28;20235;-67
2022/03/25 04:43:05;;;;;;;44.63;18.27;;;;;;;1.44;70.33;101085.91;4207566;28;22743;-67
2022/03/25 04:45:32;;;;;;;49.80;19.80;;;;;;;1.52;69.99;101094.25;4244237;28;21233;-68
2022/03/25 04:47:59;;;;;;;51.03;21.80;;;;;;;1.58;69.68;101090.53;4216696;28;20236;-69
2022/03/25 04:50:27;;;;;;;48.00;19.87;;;;;;;1.61;69.96;101096.47;4207574;28;20228;-69
2022/03/25 04:52:57;;;;;;;59.07;21.13;;;;;;;1.74;69.76;101093.28;4187026;28;20239;-66
2022/03/25 04:55:24;;;;;;;51.47;21.33;;;;;;;1.72;69.67;101090.72;4202639;28;20421;-67
2022/03/25 04:57:50;;;;;;;50.67;20.70;;;;;;;1.76;69.16;101092.28;4188679;28;22436;-68
2022/03/25 05:00:17;;;;;;;43.43;18.73;;;;;;;1.74;69.33;101095.91;4185684;28;20238;-68
2022/03/25 05:02:44;;;;;;;52.83;20.17;;;;;;;1.74;69.46;101102.00;4210980;28;20227;-69
2022/03/25 05:05:12;;;;;;;43.17;18.37;;;;;;;1.79;69.22;101094.75;4197323;28;23013;-69
2022/03/25 05:07:43;;;;;;;50.27;18.37;;;;;;;1.89;68.52;101097.78;4194832;28;22091;-68
2022/03/25 05:10:13;;;;;;;44.97;17.90;;;;;;;1.92;68.31;101097.66;4202220;28;21062;-70
2022/03/25 05:12:41;;;;;;;45.37;17.57;;;;;;;2.00;67.97;101098.13;4185705;28;20775;-68
2022/03/25 05:15:08;;;;;;;46.07;18.17;;;;;;;1.87;68.58;101104.88;4187682;28;20256;-68
2022/03/25 05:17:35;;;;;;;49.77;17.67;;;;;;;1.79;68.78;101109.66;4193551;28;20232;-68
2022/03/25 05:20:05;;;;;;;41.40;17.07;;;;;;;1.97;68.25;101102.69;4193692;28;26487;-71
2022/03/25 05:22:32;;;;;;;51.57;19.60;;;;;;;2.04;68.22;101106.72;4189380;28;20463;-68
2022/03/25 05:24:59;;;;;;;42.20;18.07;;;;;;;2.17;67.42;101107.81;4194815;28;23765;-68
2022/03/25 05:27:25;;;;;;;45.80;19.83;;;;;;;2.06;68.25;101107.47;4194151;28;20562;-69
2022/03/25 05:29:52;;;;;;;45.90;19.53;;;;;;;2.13;68.14;101114.16;4188826;28;20232;-68
2022/03/25 05:32:18;;;;;;;55.47;22.67;;;;;;;2.18;67.49;101106.91;4217623;28;20252;-69
2022/03/25 05:34:45;;;;;;;60.37;22.60;;;;;;;2.14;67.43;101115.84;4200853;28;20232;-70
2022/03/25 05:37:12;;;;;;;48.97;21.37;;;;;;;2.14;67.92;101112.38;4188297;28;20232;-68
2022/03/25 05:39:38;;;;;;;53.37;22.07;;;;;;;2.17;67.92;101114.84;4225552;28;20294;-69
2022/03/25 05:42:05;;;;;;;48.20;19.17;;;;;;;2.20;67.56;101114.69;4201463;28;20236;-70
2022/03/25 05:44:31;;;;;;;51.70;19.77;;;;;;;2.25;67.19;101105.69;4204628;28;20232;-72
2022/03/25 05:46:58;;;;;;;43.97;19.63;;;;;;;2.43;67.43;101111.78;4203116;28;25418;-73
2022/03/25 05:49:24;;;;;;;43.17;18.40;;;;;;;2.58;66.95;101110.19;4206703;28;21583;-73
2022/03/25 05:51:51;;;;;;;42.93;19.23;;;;;;;2.75;65.90;101118.06;4202933;28;21624;-76
2022/03/25 05:54:17;;;;;;;40.97;18.33;;;;;;;2.89;65.65;101119.97;4190994;28;21202;-75
2022/03/25 05:56:44;;;;;;;45.37;19.93;;;;;;;2.96;65.43;101118.72;4207538;28;20232;-74
2022/03/25 05:59:10;;;;;;;48.13;20.80;;;;;;;3.11;65.13;101122.38;4192715;28;21418;-68
2022/03/25 06:01:38;;;;;;;48.90;19.47;;;;;;;3.24;64.36;101119.09;4231442;28;20308;-73
2022/03/25 06:04:05;;;;;;;44.27;18.87;;;;;;;3.31;63.79;101117.81;4199659;28;20634;-71
2022/03/25 06:06:31;;;;;;;45.70;19.57;;;;;;;3.43;63.72;101126.84;4203878;28;20697;-71
2022/03/25 06:08:58;;;;;;;49.10;20.37;;;;;;;3.46;63.53;101130.13;4199547;28;20228;-74
2022/03/25 06:11:25;;;;;;;50.80;19.90;;;;;;;3.64;62.91;101123.03;4193522;28;20236;-68
2022/03/25 06:13:52;;;;;;;40.90;19.17;;;;;;;3.78;62.60;101120.50;4209877;28;21962;-75
2022/03/25 06:16:19;;;;;;;47.97;18.40;;;;;;;3.91;62.18;101118.06;4194673;28;21440;-73
2022/03/25 06:18:46;;;;;;;44.47;18.03;;;;;;;3.92;61.80;101126.78;4202030;28;20627;-75
2022/03/25 06:21:13;;;;;;;48.90;19.50;;;;;;;4.06;61.78;101129.50;4218697;28;20411;-75
2022/03/25 06:23:39;;;;;;;47.23;18.73;;;;;;;4.19;60.46;101120.00;4191617;28;20232;-70
2022/03/25 06:26:07;;;;;;;46.80;19.30;;;;;;;4.18;60.26;101125.34;4194086;28;20301;-67
2022/03/25 06:28:35;;;;;;;43.50;19.10;;;;;;;4.41;59.98;101129.28;4189224;28;20228;-70
2022/03/25 06:31:02;;;;;;;47.90;18.70;;;;;;;4.57;59.34;101121.34;4208178;28;22175;-70
2022/03/25 06:33:31;;;;;;;40.17;18.30;;;;;;;4.59;59.56;101122.97;4198140;28;20969;-69
2022/03/25 06:35:58;;;;;;;46.07;18.77;;;;;;;4.69;58.69;101125.91;4216619;28;20406;-69
2022/03/25 06:38:24;;;;;;;44.53;19.73;;;;;;;4.66;58.58;101128.72;4201396;28;25718;-72
2022/03/25 06:40:52;;;;;;;54.03;19.83;;;;;;;4.85;58.10;101133.75;4205691;28;20342;-69
2022/03/25 06:43:19;;;;;;;49.20;19.97;;;;;;;5.16;57.35;101140.69;4204819;28;20254;-68
2022/03/25 06:45:46;;;;;;;46.23;19.67;;;;;;;5.34;57.99;101138.72;4192519;28;20236;-69
2022/03/25 06:48:12;;;;;;;57.87;20.53;;;;;;;5.15;58.69;101135.47;4203619;28;20239;-69
2022/03/25 06:50:39;;;;;;;49.37;21.47;;;;;;;4.93;60.41;101135.94;4233510;28;20243;-71
2022/03/25 06:53:07;;;;;;;53.47;21.97;;;;;;;5.17;59.84;101130.97;4239336;28;20250;-69
2022/03/25 06:55:36;;;;;;;51.13;20.73;;;;;;;5.39;59.07;101139.28;4197209;28;20228;-69
2022/03/25 06:58:03;;;;;;;50.67;21.77;;;;;;;5.51;59.29;101148.22;4213465;28;20243;-70
2022/03/25 07:00:31;;;;;;;49.27;21.10;;;;;;;5.82;58.36;101141.88;4223426;28;20248;-68
2022/03/25 07:02:58;;;;;;;45.80;20.20;;;;;;;6.09;56.63;101139.31;4219331;28;25766;-69
2022/03/25 07:05:25;;;;;;;46.03;20.97;;;;;;;6.25;55.63;101147.09;4225217;28;20232;-70
2022/03/25 07:07:52;;;;;;;53.10;19.43;;;;;;;6.41;55.18;101146.09;4237109;28;20296;-70
2022/03/25 07:10:23;;;;;;;50.07;19.03;;;;;;;6.02;54.47;101147.75;4218751;28;20255;-68
2022/03/25 07:12:51;;;;;;;48.67;20.70;;;;;;;6.25;54.76;101144.47;4223466;28;20269;-69
2022/03/25 07:15:18;;;;;;;51.80;21.57;;;;;;;6.61;53.05;101153.56;4197640;28;22095;-66
2022/03/25 07:17:44;;;;;;;46.10;21.33;;;;;;;6.99;52.04;101147.50;4213438;28;20252;-70
2022/03/25 07:20:13;;;;;;;47.50;20.70;;;;;;;7.58;49.96;101155.72;4215465;28;20236;-71
2022/03/25 07:22:43;;;;;;;47.97;19.77;;;;;;;8.15;48.44;101161.47;4221996;28;20349;-68
2022/03/25 07:25:11;;;;;;;52.53;20.67;;;;;;;9.97;43.24;101170.56;4238178;28;22038;-69
2022/03/25 07:27:38;;;;;;;43.60;19.07;;;;;;;13.55;35.69;101184.69;4231917;28;25579;-69
2022/03/25 07:30:06;;;;;;;44.13;19.57;;;;;;;16.51;29.64;101207.56;4225090;28;20282;-73
2022/03/25 07:32:32;;;;;;;47.47;19.33;;;;;;;18.96;25.47;101224.97;4268851;28;20232;-72
2022/03/25 07:34:59;;;;;;;49.43;19.23;;;;;;;21.36;21.72;101233.44;4237857;28;20260;-71
2022/03/25 07:37:26;;;;;;;42.73;18.63;;;;;;;22.25;20.05;101235.47;4235711;28;20274;-70
2022/03/25 07:39:52;;;;;;;44.47;17.97;;;;;;;21.75;19.81;101229.38;4273200;28;21234;-70
2022/03/25 07:42:19;;;;;;;40.37;18.87;;;;;;;21.83;19.69;101226.47;4195450;28;20232;-70
2022/03/25 07:44:46;;;;;;;39.80;17.43;;;;;;;22.72;18.99;101228.31;4230231;28;20259;-70
2022/03/25 07:47:14;;;;;;;38.17;17.90;;;;;;;24.07;17.52;101235.34;4215290;28;20224;-69
2022/03/25 07:49:41;;;;;;;35.23;17.97;;;;;;;24.08;16.95;101231.59;4243012;28;20406;-72
2022/03/25 07:52:10;;;;;;;41.97;17.20;;;;;;;24.69;16.46;101238.44;4272094;28;20753;-73
2022/03/25 07:54:38;;;;;;;39.00;17.70;;;;;;;25.57;15.27;101241.13;4207783;28;21555;-71
2022/03/25 07:57:05;;;;;;;33.93;16.97;;;;;;;27.12;14.07;101236.22;4208327;28;20235;-71
2022/03/25 07:59:32;;;;;;;33.10;16.33;;;;;;;27.57;13.41;101238.41;4246032;28;20232;-70
2022/03/25 08:01:58;;;;;;;40.33;18.00;;;;;;;26.74;13.68;101240.19;4233414;28;21316;-71
2022/03/25 08:04:25;;;;;;;40.63;17.53;;;;;;;27.60;13.46;101242.56;4227447;28;24491;-72
2022/03/25 08:06:54;;;;;;;37.50;17.80;;;;;;;27.40;13.37;101237.47;4208048;28;21487;-72
2022/03/25 08:09:20;;;;;;;38.28;17.73;;;;;;;27.33;13.48;101243.03;4193683;28;20220;-71
2022/03/25 08:11:47;;;;;;;38.70;18.90;;;;;;;26.85;13.75;101233.88;4185485;28;20306;-70
2022/03/25 08:14:15;;;;;;;38.83;18.67;;;;;;;27.54;13.07;101244.34;4218431;28;20360;-73
2022/03/25 08:16:42;;;;;;;33.78;18.13;;;;;;;27.75;13.09;101235.53;4262521;28;20379;-71
2022/03/25 08:19:10;;;;;;;33.10;17.52;;;;;;;24.68;15.23;101226.72;4205998;28;20371;-71
2022/03/25 08:21:37;;;;;;;30.33;17.20;;;;;;;25.10;14.88;101229.78;4224406;28;21614;-73
2022/03/25 08:29:36;;;;;;;38.30;17.25;;;;;;;27.52;12.98;101241.03;4226114;28;20905;-71
2022/03/25 08:32:04;;;;;;;42.07;17.67;;;;;;;25.97;14.04;101223.53;4217269;28;21250;-70
2022/03/25 08:34:31;;;;;;;31.93;16.57;;;;;;;23.79;16.68;101212.88;4223757;28;20717;-70
2022/03/25 08:36:57;;;;;;;31.47;16.30;;;;;;;22.98;17.15;101210.38;4193308;28;20740;-72
2022/03/25 08:39:24;;;;;;;39.90;17.27;;;;;;;21.88;18.34;101205.03;4208540;28;22769;-71
2022/03/25 08:41:51;;;;;;;39.80;17.33;;;;;;;20.62;19.71;101201.31;4201793;28;20232;-70
2022/03/25 08:44:17;;;;;;;33.80;16.70;;;;;;;18.21;22.49;101179.75;4211927;28;20228;-73
2022/03/25 08:46:44;;;;;;;42.07;19.43;;;;;;;17.72;24.03;101172.72;4220976;28;20299;-71
2022/03/25 08:49:11;;;;;;;30.57;14.70;;;;;;;17.79;24.13;101177.41;4200470;28;20240;-70
2022/03/25 08:51:38;;;;;;;26.67;13.87;;;;;;;18.31;22.82;101182.25;4193867;28;21379;-70
2022/03/25 08:54:04;;;;;;;26.90;13.57;;;;;;;18.28;23.27;101182.59;4216215;28;21873;-72
2022/03/25 08:56:31;;;;;;;33.07;14.83;;;;;;;18.57;22.35;101179.22;4204575;28;20354;-69
2022/03/25 08:58:58;;;;;;;29.07;14.50;;;;;;;17.65;23.24;101160.97;4192864;28;20232;-69
2022/03/25 09:01:25;;;;;;;28.90;14.53;;;;;;;17.41;24.57;101174.47;4224572;28;20824;-71
2022/03/25 09:03:53;;;;;;;36.60;16.33;;;;;;;16.56;25.39;101164.91;4193635;28;20243;-71
2022/03/25 09:06:20;;;;;;;38.27;15.30;;;;;;;17.01;25.15;101170.84;4207781;28;20258;-70
2022/03/25 09:08:47;;;;;;;30.03;14.67;;;;;;;17.42;24.36;101165.38;4200246;28;21485;-73
2022/03/25 09:11:13;;;;;;;33.53;14.33;;;;;;;17.10;24.81;101164.44;4211959;28;21595;-69
2022/03/25 09:13:40;;;;;;;37.60;15.43;;;;;;;16.58;26.09;101154.03;4232570;28;20271;-71
2022/03/25 09:16:07;;;;;;;36.43;14.80;;;;;;;16.28;26.47;101161.69;4235959;28;20240;-71
2022/03/25 09:18:34;;;;;;;34.97;15.67;;;;;;;16.14;26.66;101159.63;4194878;28;20873;-71
2022/03/25 09:21:01;;;;;;;43.63;16.17;;;;;;;15.57;27.50;101153.00;4221246;28;21258;-74
2022/03/25 09:23:31;;;;;;;38.03;15.83;;;;;;;15.83;27.37;101149.47;4220491;28;20254;-70
2022/03/25 09:26:00;;;;;;;42.70;15.50;;;;;;;15.31;28.81;101146.81;4232834;28;20535;-71
2022/03/25 09:28:27;;;;;;;39.40;15.47;;;;;;;14.77;29.15;101144.25;4224537;28;20872;-72
2022/03/25 09:30:55;;;;;;;40.47;15.53;;;;;;;14.36;30.22;101144.69;4216436;28;20282;-69
2022/03/25 09:33:22;;;;;;;37.60;15.33;;;;;;;13.72;31.46;101148.34;4215971;28;20232;-69
2022/03/25 09:35:49;;;;;;;36.70;15.50;;;;;;;14.26;31.08;101141.25;4240100;28;20237;-70
2022/03/25 09:38:15;;;;;;;44.50;16.10;;;;;;;14.87;29.71;101128.94;4205424;28;20256;-68
2022/03/25 09:40:43;;;;;;;39.70;16.87;;;;;;;15.08;29.77;101130.44;4231289;28;20236;-69
2022/03/25 09:43:11;;;;;;;34.00;15.90;;;;;;;15.09;29.53;101130.25;4214652;28;21252;-70
2022/03/25 09:45:39;;;;;;;35.27;15.87;;;;;;;14.60;30.27;101126.38;4213689;28;22357;-72
2022/03/25 09:48:06;;;;;;;36.27;15.97;;;;;;;14.68;30.20;101124.63;4211255;28;22724;-70
2022/03/25 09:50:39;;;;;;;38.43;15.83;;;;;;;14.67;30.15;101117.56;4221486;28;20960;-70
2022/03/25 09:53:30;;;;;;;35.30;15.93;;;;;;;14.05;31.39;101117.44;4213316;28;20914;-71
2022/03/25 09:55:58;;;;;;;34.20;15.30;;;;;;;14.20;31.55;101117.75;4211126;28;20709;-72
2022/03/25 09:58:25;;;;;;;43.43;15.50;;;;;;;14.40;31.00;101109.56;4204292;28;27038;-70
2022/03/25 10:00:52;;;;;;;35.93;15.83;;;;;;;14.51;30.56;101118.22;4212076;28;21828;-70
2022/03/25 10:03:36;;;;;;;38.27;15.33;;;;;;;14.64;30.74;101120.56;4210959;28;20228;-70
2022/03/25 10:06:09;;;;;;;33.13;15.30;;;;;;;13.89;31.41;101119.94;4207198;28;20444;-69
2022/03/25 10:08:43;;;;;;;32.67;14.37;;;;;;;13.91;31.77;101107.25;4181498;28;20238;-70
2022/03/25 10:11:27;;;;;;;38.50;15.87;;;;;;;14.25;31.37;101109.28;4214237;28;20558;-72
2022/03/25 10:14:28;;;;;;;38.87;14.50;;;;;;;14.42;30.62;101108.44;4204776;28;20254;-70
2022/03/25 10:16:55;;;;;;;33.60;13.90;;;;;;;14.19;31.43;101107.19;4197280;28;20458;-71
2022/03/25 10:19:28;;;;;;;33.07;15.23;;;;;;;14.13;31.73;101105.97;4217068;28;20232;-70
2022/03/25 10:22:02;;;;;;;33.23;13.70;;;;;;;13.90;31.76;101109.06;4225293;28;20655;-71
2022/03/25 10:24:38;;;;;;;31.33;13.53;;;;;;;13.79;31.85;101111.13;4206760;28;20219;-69
2022/03/25 10:27:13;;;;;;;39.93;14.70;;;;;;;13.61;32.69;101113.75;4192878;28;22083;-69
2022/03/25 10:29:43;;;;;;;31.30;14.30;;;;;;;13.61;32.03;101101.22;4187498;28;22235;-69
2022/03/25 10:32:20;;;;;;;44.77;16.20;;;;;;;13.67;32.09;101099.78;4198725;28;20228;-69
2022/03/25 10:35:09;;;;;;;35.07;15.67;;;;;;;13.96;32.57;101093.44;4185742;28;20234;-71
2022/03/25 10:37:57;;;;;;;37.27;15.27;;;;;;;14.27;31.58;101105.44;4189013;28;20241;-73
2022/03/25 10:40:24;;;;;;;38.00;15.03;;;;;;;14.45;30.87;101096.59;4192510;28;20694;-71
2022/03/25 10:43:07;;;;;;;35.87;15.40;;;;;;;14.34;31.48;101098.50;4227750;28;20732;-73
2022/03/25 10:45:40;;;;;;;35.90;14.97;;;;;;;13.97;31.83;101095.09;4194138;28;20285;-71
2022/03/25 10:48:20;;;;;;;39.03;15.97;;;;;;;14.25;31.75;101096.72;4175229;28;22093;-70
2022/03/25 10:51:01;;;;;;;40.03;15.77;;;;;;;13.92;32.66;101088.38;4191237;28;20235;-70
2022/03/25 10:53:30;;;;;;;32.93;15.07;;;;;;;14.20;31.28;101088.31;4205247;28;20424;-76
2022/03/25 10:56:06;;;;;;;36.40;15.73;;;;;;;14.26;31.58;101087.72;4205645;28;20444;-72
2022/03/25 10:58:36;;;;;;;41.90;16.33;;;;;;;14.34;31.26;101079.75;4194944;28;22966;-72
2022/03/25 11:01:08;;;;;;;36.43;15.10;;;;;;;14.60;30.18;101088.88;4199228;28;22905;-73
2022/03/25 11:03:37;;;;;;;32.30;14.77;;;;;;;14.45;31.02;101080.53;4203184;28;22163;-71
2022/03/25 11:06:08;;;;;;;34.27;13.57;;;;;;;14.43;31.00;101077.16;4181753;28;21980;-71
2022/03/25 11:08:36;;;;;;;31.90;13.73;;;;;;;14.46;30.21;101076.84;4190294;28;20229;-71
2022/03/25 11:11:02;;;;;;;37.23;14.67;;;;;;;14.52;30.56;101092.31;4216601;28;22516;-71
2022/03/25 11:13:29;;;;;;;32.50;15.27;;;;;;;14.28;30.92;101080.38;4196292;28;20465;-73
2022/03/25 11:15:57;;;;;;;37.50;16.00;;;;;;;14.55;30.40;101066.06;4173692;28;23012;-72
2022/03/25 11:18:27;;;;;;;39.33;17.13;;;;;;;14.61;30.76;101067.28;4218760;28;20304;-73
2022/03/25 11:21:00;;;;;;;34.67;15.90;;;;;;;14.68;30.10;101063.00;4190720;28;21182;-73
2022/03/25 11:23:30;;;;;;;28.43;13.67;;;;;;;15.01;29.15;101067.72;4211125;28;21484;-71